createdAt,value
2022-11-30T00:03:22.129Z,38.65
2022-11-30T00:08:29.215Z,36.38
2022-11-30T00:13:34.429Z,33.53
2022-11-30T00:18:38.486Z,34.85
2022-11-30T00:23:43.815Z,33.33
2022-11-30T00:28:48.880Z,31.58
2022-11-30T00:33:52.707Z,30.55
2022-11-30T00:38:56.824Z,28.58
2022-11-30T00:44:01.859Z,26.58
2022-11-30T00:49:05.494Z,28.02
2022-11-30T00:54:09.218Z,27.20
2022-11-30T00:59:14.328Z,26.23
2022-11-30T01:04:18.175Z,27.15
2022-11-30T01:09:21.841Z,28.33
2022-11-30T01:14:27.166Z,25.05
2022-11-30T01:19:30.869Z,29.35
2022-11-30T01:24:34.571Z,27.98
2022-11-30T01:29:39.654Z,29.02
2022-11-30T01:34:43.414Z,28.83
2022-11-30T01:39:47.157Z,28.27
2022-11-30T01:44:55.426Z,27.92
2022-11-30T01:55:14.137Z,29.42
2022-11-30T02:00:20.138Z,28.25
2022-11-30T02:05:25.464Z,28.08
2022-11-30T02:10:31.475Z,30.30
2022-11-30T02:15:47.526Z,29.67
2022-11-30T02:21:01.010Z,28.52
2022-11-30T02:26:16.511Z,27.65
2022-11-30T02:31:27.834Z,29.63
2022-11-30T02:36:32.830Z,31.27
2022-11-30T02:41:38.388Z,29.20
2022-11-30T02:47:02.897Z,27.87
2022-11-30T02:52:08.718Z,28.33
2022-11-30T02:57:12.454Z,29.15
2022-11-30T03:02:17.546Z,27.30
2022-11-30T03:07:21.390Z,27.27
2022-11-30T03:12:25.230Z,27.35
2022-11-30T03:17:30.307Z,27.75
2022-11-30T03:22:34.007Z,28.95
2022-11-30T03:27:37.779Z,28.15
2022-11-30T03:32:42.786Z,27.67
2022-11-30T03:37:46.771Z,27.33
2022-11-30T03:42:50.450Z,26.77
2022-11-30T03:47:55.449Z,27.60
2022-11-30T03:52:59.194Z,27.58
2022-11-30T03:58:02.866Z,26.60
2022-11-30T04:03:07.931Z,27.98
2022-11-30T04:08:11.667Z,25.75
2022-11-30T04:13:15.411Z,29.30
2022-11-30T04:18:21.912Z,28.15
2022-11-30T04:23:26.721Z,26.65
2022-11-30T04:28:30.446Z,26.73
2022-11-30T04:33:35.420Z,28.67
2022-11-30T04:38:39.104Z,27.85
2022-11-30T04:43:42.858Z,27.17
2022-11-30T04:48:47.924Z,25.42
2022-11-30T04:53:51.599Z,26.37
2022-11-30T04:58:55.260Z,27.42
2022-11-30T05:04:00.579Z,28.67
2022-11-30T05:09:04.492Z,27.33
2022-11-30T05:14:08.203Z,29.05
2022-11-30T05:19:14.685Z,26.70
2022-11-30T05:24:18.370Z,31.60
2022-11-30T05:29:22.091Z,27.35
2022-11-30T05:34:27.130Z,26.50
2022-11-30T05:39:30.852Z,27.45
2022-11-30T05:44:34.627Z,26.83
2022-11-30T05:49:39.691Z,25.60
2022-11-30T05:54:43.392Z,24.70
2022-11-30T05:59:47.173Z,23.35
2022-11-30T06:04:52.166Z,22.92
2022-11-30T06:09:55.920Z,23.42
2022-11-30T06:14:59.608Z,23.55
2022-11-30T06:20:05.286Z,24.58
2022-11-30T06:25:09.174Z,26.17
2022-11-30T06:30:14.071Z,25.40
2022-11-30T06:35:20.046Z,27.02
2022-11-30T06:40:23.981Z,25.15
2022-11-30T06:45:27.849Z,27.15
2022-11-30T06:50:33.029Z,26.48
2022-11-30T06:55:38.286Z,27.20
2022-11-30T07:00:42.842Z,26.17
2022-11-30T07:05:48.006Z,26.10
2022-11-30T07:10:51.742Z,25.55
2022-11-30T07:15:55.423Z,27.02
2022-11-30T07:21:02.224Z,24.60
2022-11-30T07:26:09.292Z,23.67
2022-11-30T07:31:19.252Z,24.27
2022-11-30T07:36:26.521Z,23.45
2022-11-30T07:41:30.418Z,27.42
2022-11-30T07:46:35.978Z,25.65
2022-11-30T07:51:41.014Z,31.27
2022-11-30T07:56:44.656Z,26.33
2022-11-30T08:01:48.561Z,42.28
2022-11-30T08:06:54.670Z,31.58
2022-11-30T08:11:58.507Z,25.05
2022-11-30T08:17:02.357Z,24.10
2022-11-30T08:22:07.449Z,23.10
2022-11-30T08:27:11.183Z,24.12
2022-11-30T08:32:14.919Z,22.83
2022-11-30T08:37:20.165Z,21.67
2022-11-30T08:42:23.892Z,21.17
2022-11-30T08:47:27.800Z,21.10
2022-11-30T08:52:32.954Z,22.40
2022-11-30T08:57:36.651Z,24.83
2022-11-30T09:02:40.426Z,26.83
2022-11-30T09:07:45.502Z,26.87
2022-11-30T09:12:49.297Z,29.67
2022-11-30T09:17:53.083Z,30.88
2022-11-30T09:23:00.343Z,32.17
2022-11-30T09:28:06.832Z,31.48
2022-11-30T09:33:14.650Z,33.78
2022-11-30T09:38:19.848Z,34.33
2022-11-30T09:43:37.910Z,34.05
2022-11-30T09:48:52.754Z,31.60
2022-11-30T09:54:01.921Z,31.73
2022-11-30T09:59:14.881Z,30.10
2022-11-30T10:04:23.934Z,28.73
2022-11-30T10:09:39.937Z,31.35
2022-11-30T10:15:00.555Z,31.27
2022-11-30T10:20:17.840Z,31.65
2022-11-30T10:25:25.327Z,30.08
2022-11-30T10:30:36.214Z,32.67
2022-11-30T10:35:43.155Z,32.20
2022-11-30T10:40:52.435Z,31.42
2022-11-30T10:45:56.505Z,29.33
2022-11-30T10:51:02.162Z,28.77
2022-11-30T10:56:10.886Z,29.12
2022-11-30T11:01:30.941Z,29.27
2022-11-30T11:06:34.990Z,26.85
2022-11-30T11:11:40.435Z,26.40
2022-11-30T11:16:52.301Z,26.17
2022-11-30T11:21:56.091Z,25.10
2022-11-30T11:27:01.625Z,24.05
2022-11-30T11:32:24.847Z,24.17
2022-11-30T11:37:31.376Z,22.55
2022-11-30T11:42:42.741Z,23.05
2022-11-30T11:47:49.049Z,22.90
2022-11-30T11:53:15.340Z,20.37
2022-11-30T11:58:28.577Z,20.10
2022-11-30T12:03:38.205Z,20.20
2022-11-30T12:08:47.790Z,21.33
2022-11-30T12:13:53.631Z,21.12
2022-11-30T12:19:04.027Z,20.92
2022-11-30T12:24:30.530Z,19.73
2022-11-30T12:29:47.460Z,20.90
2022-11-30T12:35:05.334Z,20.95
2022-11-30T12:40:26.004Z,21.87
2022-11-30T12:45:36.162Z,22.25
2022-11-30T12:50:51.152Z,21.27
2022-11-30T12:56:07.231Z,19.80
2022-11-30T13:01:28.076Z,17.62
2022-11-30T13:06:38.282Z,18.27
2022-11-30T13:11:47.335Z,16.90
2022-11-30T13:17:00.835Z,16.98
2022-11-30T13:22:12.955Z,17.27
2022-11-30T13:27:23.899Z,18.08
2022-11-30T13:32:57.395Z,16.60
2022-11-30T13:38:34.545Z,16.58
2022-11-30T13:43:29.439Z,18.15
2022-11-30T13:48:40.503Z,16.65
2022-11-30T13:53:44.292Z,18.35
2022-11-30T13:59:22.708Z,20.33
2022-11-30T14:04:34.750Z,19.62
2022-11-30T14:09:59.635Z,19.98
2022-11-30T14:15:05.286Z,21.00
2022-11-30T14:20:18.993Z,19.98
2022-11-30T14:25:23.431Z,21.30
2022-11-30T14:30:34.474Z,22.48
2022-11-30T14:35:41.407Z,21.75
2022-11-30T14:40:52.034Z,22.98
2022-11-30T14:46:04.682Z,23.87
2022-11-30T14:51:13.095Z,24.37
2022-11-30T14:56:26.709Z,23.77
2022-11-30T15:01:32.991Z,24.17
2022-11-30T15:06:40.201Z,25.37
2022-11-30T15:11:46.589Z,23.77
2022-11-30T15:16:53.248Z,24.75
2022-11-30T15:21:59.676Z,26.20
2022-11-30T15:27:10.936Z,25.85
2022-11-30T15:32:17.933Z,25.67
2022-11-30T15:37:30.505Z,26.35
2022-11-30T15:42:39.980Z,25.85
2022-11-30T15:47:43.892Z,25.98
2022-11-30T15:52:51.062Z,24.10
2022-11-30T15:57:59.830Z,22.35
2022-11-30T16:03:10.293Z,22.08
2022-11-30T16:08:19.075Z,24.55
2022-11-30T16:13:23.773Z,24.05
2022-11-30T16:18:29.515Z,23.42
2022-11-30T16:23:36.137Z,23.17
2022-11-30T16:28:40.139Z,23.98
2022-11-30T16:33:44.299Z,22.58
2022-11-30T16:38:51.158Z,23.33
2022-11-30T16:43:57.747Z,23.30
2022-11-30T16:49:01.469Z,24.25
2022-11-30T16:54:06.586Z,24.65
2022-11-30T16:59:15.131Z,23.95
2022-11-30T17:04:22.774Z,24.20
2022-11-30T17:09:29.947Z,25.27
2022-11-30T17:14:33.739Z,23.23
2022-11-30T17:19:37.779Z,24.23
2022-11-30T17:24:42.923Z,23.70
2022-11-30T17:29:46.608Z,25.00
2022-11-30T17:34:50.581Z,26.15
2022-11-30T17:39:55.875Z,24.15
2022-11-30T17:44:59.844Z,23.92
2022-11-30T17:50:03.689Z,25.37
2022-11-30T17:55:09.745Z,26.08
2022-11-30T18:00:14.366Z,25.95
2022-11-30T18:05:18.269Z,24.83
2022-11-30T18:10:23.459Z,24.92
2022-11-30T18:15:27.162Z,24.37
2022-11-30T18:20:30.907Z,25.55
2022-11-30T18:25:35.988Z,24.42
2022-11-30T18:30:39.901Z,25.70
2022-11-30T18:35:43.750Z,26.15
2022-11-30T18:40:48.851Z,24.77
2022-11-30T18:45:52.676Z,25.23
2022-11-30T18:50:56.477Z,25.83
2022-11-30T18:56:10.405Z,25.50
2022-11-30T19:01:16.254Z,26.33
2022-11-30T19:06:20.856Z,24.85
2022-11-30T19:11:26.504Z,26.65
2022-11-30T19:16:33.360Z,24.73
2022-11-30T19:21:37.438Z,25.37
2022-11-30T19:26:42.619Z,25.92
2022-11-30T19:31:46.317Z,27.23
2022-11-30T19:36:50.121Z,26.85
2022-11-30T19:41:55.164Z,27.27
2022-11-30T19:47:00.181Z,25.95
2022-11-30T19:52:03.902Z,26.95
2022-11-30T19:57:08.991Z,25.73
2022-11-30T20:02:12.814Z,26.23
2022-11-30T20:07:16.591Z,25.67
2022-11-30T20:12:21.678Z,25.92
2022-11-30T20:17:25.500Z,25.90
2022-11-30T20:22:29.247Z,27.13
2022-11-30T20:27:35.891Z,27.67
2022-11-30T20:32:42.656Z,26.60
2022-11-30T20:37:46.516Z,29.58
2022-11-30T20:42:52.239Z,29.35
2022-11-30T20:47:56.625Z,29.77
2022-11-30T20:53:00.548Z,28.25
2022-11-30T20:58:05.662Z,29.80
2022-11-30T21:03:09.515Z,29.73
2022-11-30T21:08:13.305Z,28.73
2022-11-30T21:13:19.242Z,29.17
2022-11-30T21:18:23.167Z,27.60
2022-11-30T21:23:27.679Z,28.75
2022-11-30T21:28:37.796Z,29.05
2022-11-30T21:33:45.694Z,30.37
2022-11-30T21:39:02.651Z,30.62
2022-11-30T21:44:15.058Z,31.17
2022-11-30T21:49:18.874Z,29.05
2022-11-30T21:54:22.862Z,30.90
2022-11-30T21:59:27.913Z,30.23
2022-11-30T22:04:31.658Z,30.30
2022-11-30T22:09:35.551Z,30.77
2022-11-30T22:14:40.744Z,31.10
2022-11-30T22:19:44.472Z,29.65
2022-11-30T22:24:48.980Z,30.12
2022-11-30T22:29:54.657Z,31.87
2022-11-30T22:34:58.370Z,30.05
2022-11-30T22:40:02.079Z,28.33
2022-11-30T22:45:08.894Z,29.90
2022-11-30T22:50:13.298Z,28.38
2022-11-30T22:55:17.427Z,28.70
2022-11-30T23:00:22.746Z,28.85
2022-11-30T23:05:26.542Z,27.90
2022-11-30T23:10:30.253Z,29.05
2022-11-30T23:15:35.338Z,28.27
2022-11-30T23:20:39.034Z,27.10
2022-11-30T23:25:42.983Z,29.40
2022-11-30T23:30:47.957Z,28.55
2022-11-30T23:35:51.661Z,29.50
2022-11-30T23:40:55.324Z,29.92
2022-11-30T23:46:00.697Z,27.62
2022-11-30T23:51:04.974Z,27.73
2022-11-30T23:56:12.898Z,27.00
